createdAt,value
2019-03-21T00:01:12.308Z,79.10
2019-03-21T00:03:38.658Z,79.20
2019-03-21T00:06:07.330Z,79.20
2019-03-21T00:08:35.294Z,79.20
2019-03-21T00:11:38.919Z,79.10
2019-03-21T00:14:11.974Z,79.10
2019-03-21T00:16:38.322Z,79.20
2019-03-21T00:19:05.361Z,79.30
2019-03-21T00:21:31.832Z,79.50
2019-03-21T00:23:58.235Z,79.50
2019-03-21T00:26:24.515Z,79.30
2019-03-21T00:28:50.900Z,79.50
2019-03-21T00:31:17.445Z,79.30
2019-03-21T00:33:44.553Z,79.20
2019-03-21T00:36:10.913Z,79.10
2019-03-21T00:38:37.241Z,78.80
2019-03-21T00:41:03.675Z,78.40
2019-03-21T00:43:30.019Z,78.00
2019-03-21T00:45:56.315Z,77.50
2019-03-21T00:48:22.615Z,77.30
2019-03-21T00:50:48.995Z,76.80
2019-03-21T00:53:15.224Z,76.50
2019-03-21T00:55:45.912Z,76.40
2019-03-21T00:58:12.217Z,76.30
2019-03-21T01:00:42.201Z,76.20
2019-03-21T01:03:09.824Z,76.10
2019-03-21T01:05:36.194Z,76.20
2019-03-21T01:08:02.545Z,76.40
2019-03-21T01:10:30.561Z,76.70
2019-03-21T01:12:56.946Z,77.00
2019-03-21T01:15:23.357Z,77.00
2019-03-21T01:17:49.729Z,76.80
2019-03-21T01:20:16.018Z,76.80
2019-03-21T01:22:43.283Z,76.70
2019-03-21T01:25:16.154Z,76.70
2019-03-21T01:27:42.485Z,76.80
2019-03-21T01:30:17.453Z,76.80
2019-03-21T01:32:44.458Z,76.80
2019-03-21T01:35:10.998Z,76.70
2019-03-21T01:37:37.285Z,76.80
2019-03-21T01:40:22.468Z,77.00
2019-03-21T01:42:48.772Z,76.90
2019-03-21T01:45:18.235Z,76.80
2019-03-21T01:47:44.565Z,76.90
2019-03-21T01:50:14.404Z,77.00
2019-03-21T01:52:40.823Z,77.10
2019-03-21T01:55:09.411Z,77.00
2019-03-21T01:57:35.928Z,77.00
2019-03-21T02:00:08.121Z,77.10
2019-03-21T02:02:34.527Z,78.10
2019-03-21T02:05:01.061Z,77.10
2019-03-21T02:07:27.518Z,77.30
2019-03-21T02:09:53.827Z,77.10
2019-03-21T02:12:20.041Z,77.30
2019-03-21T02:14:52.137Z,77.30
2019-03-21T02:17:14.865Z,77.30
2019-03-21T02:19:41.294Z,77.40
2019-03-21T02:22:07.626Z,77.40
2019-03-21T02:24:33.959Z,77.50
2019-03-21T02:27:00.288Z,77.60
2019-03-21T02:29:26.619Z,77.60
2019-03-21T02:31:53.048Z,77.50
2019-03-21T02:34:21.831Z,77.50
2019-03-21T02:36:48.183Z,77.70
2019-03-21T02:39:14.500Z,77.50
2019-03-21T02:41:41.182Z,77.60
2019-03-21T02:44:07.569Z,77.50
2019-03-21T02:46:34.229Z,77.50
2019-03-21T02:49:00.578Z,77.60
2019-03-21T02:51:26.916Z,77.90
2019-03-21T02:53:53.163Z,77.30
2019-03-21T02:56:25.512Z,77.40
2019-03-21T02:58:51.907Z,75.60
2019-03-21T03:01:18.271Z,77.40
2019-03-21T03:03:44.796Z,77.40
2019-03-21T03:06:11.240Z,77.40
2019-03-21T03:08:37.576Z,77.50
2019-03-21T03:11:10.580Z,77.40
2019-03-21T03:13:36.229Z,77.40
2019-03-21T03:16:02.920Z,77.30
2019-03-21T03:18:29.157Z,77.40
2019-03-21T03:20:56.285Z,78.50
2019-03-21T03:23:22.501Z,78.50
2019-03-21T03:25:50.998Z,78.50
2019-03-21T03:28:32.337Z,78.50
2019-03-21T03:30:58.641Z,78.60
2019-03-21T03:33:25.707Z,78.40
2019-03-21T03:35:53.716Z,78.50
2019-03-21T03:38:20.155Z,79.30
2019-03-21T03:40:56.315Z,78.60
2019-03-21T03:43:22.803Z,78.90
2019-03-21T03:45:49.122Z,78.80
2019-03-21T03:48:15.526Z,78.60
2019-03-21T03:50:41.845Z,78.80
2019-03-21T03:53:08.274Z,79.60
2019-03-21T03:55:35.112Z,78.60
2019-03-21T03:58:28.295Z,78.70
2019-03-21T04:00:54.711Z,78.70
2019-03-21T04:03:21.253Z,78.50
2019-03-21T04:05:48.504Z,78.60
2019-03-21T04:08:14.836Z,78.50
2019-03-21T04:10:46.144Z,78.60
2019-03-21T04:13:12.960Z,78.50
2019-03-21T04:15:51.681Z,78.50
2019-03-21T04:18:07.383Z,78.40
2019-03-21T04:20:40.567Z,78.50
2019-03-21T04:23:06.872Z,78.50
2019-03-21T04:25:39.171Z,78.40
2019-03-21T04:28:05.610Z,78.40
2019-03-21T04:30:31.910Z,78.40
2019-03-21T04:32:58.321Z,78.50
2019-03-21T04:35:24.650Z,78.50
2019-03-21T04:37:51.068Z,78.50
2019-03-21T04:40:17.805Z,78.60
2019-03-21T04:42:44.454Z,78.60
2019-03-21T04:45:21.375Z,78.80
2019-03-21T04:47:48.062Z,78.80
2019-03-21T04:50:20.557Z,78.80
2019-03-21T04:52:46.967Z,78.80
2019-03-21T04:55:14.874Z,78.80
2019-03-21T04:57:41.167Z,78.80
2019-03-21T05:00:13.946Z,78.60
2019-03-21T05:02:40.199Z,78.80
2019-03-21T05:05:09.074Z,78.80
2019-03-21T05:07:35.410Z,78.80
2019-03-21T05:10:01.931Z,78.70
2019-03-21T05:12:28.220Z,78.80
2019-03-21T05:14:54.589Z,78.80
2019-03-21T05:17:20.801Z,78.70
2019-03-21T05:19:47.149Z,78.80
2019-03-21T05:22:13.478Z,79.00
2019-03-21T05:24:40.031Z,78.60
2019-03-21T05:27:06.356Z,78.60
2019-03-21T05:29:32.653Z,78.60
2019-03-21T05:31:58.955Z,78.60
2019-03-21T05:34:25.642Z,78.50
2019-03-21T05:36:52.691Z,78.60
2019-03-21T05:39:19.019Z,78.90
2019-03-21T05:41:45.244Z,78.50
2019-03-21T05:44:24.126Z,78.40
2019-03-21T05:46:50.503Z,78.40
2019-03-21T05:49:16.835Z,78.30
2019-03-21T05:51:43.163Z,78.30
2019-03-21T05:54:09.499Z,78.70
2019-03-21T05:56:35.758Z,78.90
2019-03-21T05:59:02.059Z,79.10
2019-03-21T06:01:28.384Z,79.30
2019-03-21T06:03:54.648Z,79.50
2019-03-21T06:06:33.729Z,79.60
2019-03-21T06:09:00.073Z,79.70
2019-03-21T06:11:27.429Z,79.90
2019-03-21T06:13:53.654Z,79.90
2019-03-21T06:16:20.089Z,80.00
2019-03-21T06:19:09.311Z,80.10
2019-03-21T06:21:54.526Z,81.00
2019-03-21T06:24:36.728Z,80.30
2019-03-21T06:27:26.101Z,80.70
2019-03-21T06:29:52.575Z,81.30
2019-03-21T06:32:18.885Z,81.80
2019-03-21T06:34:45.294Z,82.20
2019-03-21T06:37:11.729Z,82.50
2019-03-21T06:39:38.056Z,82.70
2019-03-21T06:42:04.712Z,82.80
2019-03-21T06:44:31.026Z,82.70
2019-03-21T06:46:58.073Z,82.70
2019-03-21T06:49:24.282Z,82.90
2019-03-21T06:51:50.631Z,83.30
2019-03-21T06:54:16.959Z,83.50
2019-03-21T06:56:44.484Z,83.80
2019-03-21T06:59:10.807Z,84.10
2019-03-21T07:01:37.184Z,84.30
2019-03-21T07:04:07.459Z,84.40
2019-03-21T07:06:31.600Z,84.60
2019-03-21T07:08:58.441Z,84.70
2019-03-21T07:11:24.754Z,84.90
2019-03-21T07:13:51.084Z,85.00
2019-03-21T07:16:17.424Z,85.30
2019-03-21T07:18:43.735Z,85.50
2019-03-21T07:21:10.076Z,85.60
2019-03-21T07:23:36.405Z,86.60
2019-03-21T07:26:02.736Z,85.80
2019-03-21T07:28:29.066Z,85.90
2019-03-21T07:30:55.334Z,86.40
2019-03-21T07:33:21.630Z,85.00
2019-03-21T07:35:48.061Z,85.20
2019-03-21T07:38:14.626Z,85.40
2019-03-21T07:40:41.032Z,85.30
2019-03-21T07:43:07.242Z,85.10
2019-03-21T07:45:33.589Z,84.90
2019-03-21T07:47:59.920Z,85.60
2019-03-21T07:50:26.125Z,84.50
2019-03-21T07:52:52.485Z,84.50
2019-03-21T07:55:18.731Z,84.30
2019-03-21T07:57:45.142Z,84.40
2019-03-21T08:00:16.312Z,84.50
2019-03-21T08:02:42.708Z,84.40
2019-03-21T08:05:09.755Z,84.30
2019-03-21T08:07:36.016Z,84.20
2019-03-21T08:10:04.855Z,84.40
2019-03-21T08:12:31.159Z,84.50
2019-03-21T08:14:57.540Z,84.60
2019-03-21T08:17:23.864Z,84.60
2019-03-21T08:19:50.298Z,84.30
2019-03-21T08:22:18.287Z,84.40
2019-03-21T08:24:44.598Z,84.10
2019-03-21T08:27:10.798Z,83.30
2019-03-21T08:29:37.154Z,83.50
2019-03-21T08:32:05.206Z,83.20
2019-03-21T08:34:31.559Z,83.40
2019-03-21T08:36:57.771Z,83.40
2019-03-21T08:39:24.074Z,83.60
2019-03-21T08:41:52.307Z,83.70
2019-03-21T08:44:18.455Z,83.80
2019-03-21T08:46:44.846Z,83.40
2019-03-21T08:49:11.101Z,83.30
2019-03-21T08:51:37.431Z,83.00
2019-03-21T08:54:03.761Z,82.80
2019-03-21T08:56:30.091Z,82.40
2019-03-21T08:58:56.420Z,82.30
2019-03-21T09:01:22.760Z,82.50
2019-03-21T09:03:50.865Z,82.40
2019-03-21T09:06:20.437Z,82.20
2019-03-21T09:08:46.766Z,81.60
2019-03-21T09:11:13.091Z,81.80
2019-03-21T09:13:39.423Z,81.90
2019-03-21T09:16:05.872Z,82.00
2019-03-21T09:18:32.510Z,81.90
2019-03-21T09:20:58.822Z,81.80
2019-03-21T09:23:25.122Z,81.60
2019-03-21T09:25:51.585Z,81.50
2019-03-21T09:28:17.918Z,81.30
2019-03-21T09:30:44.363Z,81.20
2019-03-21T09:33:10.629Z,81.10
2019-03-21T09:35:37.009Z,80.90
2019-03-21T09:38:03.238Z,80.50
2019-03-21T09:40:29.532Z,79.10
2019-03-21T09:42:55.898Z,79.80
2019-03-21T09:45:22.113Z,78.80
2019-03-21T09:47:48.454Z,78.70
2019-03-21T09:50:28.918Z,78.80
2019-03-21T09:52:55.460Z,78.70
2019-03-21T09:55:21.782Z,77.90
2019-03-21T09:57:49.765Z,78.30
2019-03-21T10:00:28.227Z,78.30
2019-03-21T10:02:54.540Z,78.20
2019-03-21T10:05:20.927Z,77.60
2019-03-21T10:07:47.141Z,76.40
2019-03-21T10:10:19.209Z,76.40
2019-03-21T10:12:45.343Z,76.30
2019-03-21T10:15:11.677Z,75.80
2019-03-21T10:17:37.908Z,75.10
2019-03-21T10:20:05.359Z,74.70
2019-03-21T10:22:31.598Z,74.00
2019-03-21T10:24:57.922Z,73.70
2019-03-21T10:27:24.204Z,73.20
2019-03-21T10:29:50.582Z,72.30
2019-03-21T10:32:16.881Z,73.30
2019-03-21T10:34:43.174Z,73.00
2019-03-21T10:37:11.395Z,73.00
2019-03-21T10:39:37.645Z,72.50
2019-03-21T10:42:03.974Z,71.40
2019-03-21T10:44:30.213Z,71.70
2019-03-21T10:46:57.463Z,71.50
2019-03-21T10:49:23.713Z,71.10
2019-03-21T10:51:54.946Z,70.40
2019-03-21T10:54:18.183Z,70.30
2019-03-21T10:56:44.400Z,70.10
2019-03-21T10:59:10.709Z,70.20
2019-03-21T11:01:38.722Z,69.50
2019-03-21T11:04:05.081Z,69.70
2019-03-21T11:06:31.693Z,69.70
2019-03-21T11:08:58.002Z,69.60
2019-03-21T11:11:24.313Z,70.10
2019-03-21T11:13:50.610Z,70.20
2019-03-21T11:16:17.000Z,70.60
2019-03-21T11:18:43.330Z,70.90
2019-03-21T11:21:09.558Z,70.00
2019-03-21T11:23:36.212Z,71.40
2019-03-21T11:26:02.618Z,70.70
2019-03-21T11:28:28.962Z,70.20
2019-03-21T11:30:55.289Z,70.20
2019-03-21T11:33:21.558Z,69.80
2019-03-21T11:35:47.951Z,68.90
2019-03-21T11:38:14.245Z,68.60
2019-03-21T11:40:40.572Z,68.80
2019-03-21T11:43:08.278Z,67.00
2019-03-21T11:45:34.558Z,67.40
2019-03-21T11:48:00.867Z,67.60
2019-03-21T11:50:27.361Z,66.30
2019-03-21T11:52:54.912Z,66.60
2019-03-21T11:55:22.205Z,67.10
2019-03-21T11:57:48.514Z,67.00
2019-03-21T12:00:15.519Z,68.00
2019-03-21T12:02:42.091Z,67.60
2019-03-21T12:05:08.848Z,67.30
2019-03-21T12:07:35.122Z,66.20
2019-03-21T12:10:01.889Z,66.20
2019-03-21T12:12:28.229Z,66.60
2019-03-21T12:14:54.559Z,65.70
2019-03-21T12:17:20.888Z,65.60
2019-03-21T12:19:47.218Z,65.50
2019-03-21T12:22:13.547Z,65.80
2019-03-21T12:24:39.810Z,65.80
2019-03-21T12:27:06.209Z,65.50
2019-03-21T12:29:32.507Z,65.90
2019-03-21T12:31:58.869Z,66.30
2019-03-21T12:34:25.200Z,65.80
2019-03-21T12:36:51.507Z,64.60
2019-03-21T12:39:17.807Z,65.10
2019-03-21T12:41:44.191Z,64.70
2019-03-21T12:44:10.521Z,64.90
2019-03-21T12:46:36.754Z,65.30
2019-03-21T12:49:05.052Z,65.10
2019-03-21T12:51:31.358Z,64.60
2019-03-21T12:53:58.008Z,65.10
2019-03-21T12:56:24.334Z,64.40
2019-03-21T12:58:50.649Z,63.70
2019-03-21T13:01:16.939Z,63.60
2019-03-21T13:03:43.313Z,64.80
2019-03-21T13:06:09.628Z,64.50
2019-03-21T13:08:35.973Z,63.90
2019-03-21T13:11:02.411Z,63.50
2019-03-21T13:13:28.737Z,63.90
2019-03-21T13:15:55.067Z,63.90
2019-03-21T13:18:21.398Z,64.00
2019-03-21T13:20:47.727Z,62.00
2019-03-21T13:23:14.080Z,62.30
2019-03-21T13:25:40.667Z,61.40
2019-03-21T13:28:07.347Z,60.50
2019-03-21T13:30:34.369Z,60.00
2019-03-21T13:33:00.674Z,59.60
2019-03-21T13:35:32.472Z,61.30
2019-03-21T13:37:55.088Z,62.30
2019-03-21T13:40:22.486Z,63.60
2019-03-21T13:42:48.912Z,63.90
2019-03-21T13:45:15.229Z,63.70
2019-03-21T13:47:43.214Z,63.30
2019-03-21T13:50:09.730Z,62.80
2019-03-21T13:52:35.985Z,62.00
2019-03-21T13:55:05.322Z,63.50
2019-03-21T13:57:31.698Z,62.70
2019-03-21T13:59:58.024Z,63.00
2019-03-21T14:02:24.356Z,63.40
2019-03-21T14:04:50.786Z,63.20
2019-03-21T14:07:17.124Z,64.30
2019-03-21T14:09:43.446Z,64.10
2019-03-21T14:12:09.705Z,64.90
2019-03-21T14:14:36.116Z,65.10
2019-03-21T14:17:02.621Z,64.60
2019-03-21T14:19:29.298Z,62.30
2019-03-21T14:21:55.715Z,61.40
2019-03-21T14:24:22.046Z,61.70
2019-03-21T14:26:48.478Z,60.10
2019-03-21T14:29:14.705Z,59.90
2019-03-21T14:31:40.981Z,61.90
2019-03-21T14:34:08.975Z,62.90
2019-03-21T14:36:35.434Z,63.20
2019-03-21T14:39:01.868Z,62.60
2019-03-21T14:41:28.125Z,62.80
2019-03-21T14:43:54.436Z,63.20
2019-03-21T14:46:20.762Z,63.30
2019-03-21T14:48:47.019Z,61.20
2019-03-21T14:51:13.431Z,62.80
2019-03-21T14:53:40.170Z,63.60
2019-03-21T14:56:06.605Z,64.20
2019-03-21T14:58:33.034Z,64.70
2019-03-21T15:00:59.330Z,65.30
2019-03-21T15:03:25.904Z,62.20
2019-03-21T15:05:52.228Z,61.50
2019-03-21T15:08:18.562Z,61.50
2019-03-21T15:10:44.880Z,61.80
2019-03-21T15:13:11.182Z,60.80
2019-03-21T15:15:37.654Z,63.10
2019-03-21T15:18:03.919Z,63.20
2019-03-21T15:20:30.318Z,64.00
2019-03-21T15:22:57.137Z,64.30
2019-03-21T15:25:23.548Z,64.70
2019-03-21T15:27:49.917Z,65.20
2019-03-21T15:30:18.310Z,63.10
2019-03-21T15:32:44.832Z,63.70
2019-03-21T15:35:12.452Z,63.80
2019-03-21T15:37:38.746Z,63.40
2019-03-21T15:40:08.149Z,64.00
2019-03-21T15:42:34.779Z,64.50
2019-03-21T15:45:15.626Z,64.90
2019-03-21T15:47:29.265Z,64.70
2019-03-21T15:49:55.574Z,64.90
2019-03-21T15:52:21.929Z,64.40
2019-03-21T15:54:48.472Z,63.40
2019-03-21T15:57:14.789Z,63.80
2019-03-21T15:59:41.125Z,64.10
2019-03-21T16:02:07.449Z,64.50
2019-03-21T16:04:33.719Z,64.10
2019-03-21T16:07:00.328Z,64.40
2019-03-21T16:09:26.649Z,64.00
2019-03-21T16:11:52.983Z,64.60
2019-03-21T16:14:19.306Z,64.70
2019-03-21T16:16:45.679Z,63.80
2019-03-21T16:19:12.169Z,63.40
2019-03-21T16:21:38.504Z,63.50
2019-03-21T16:24:05.815Z,64.10
2019-03-21T16:26:32.610Z,64.40
2019-03-21T16:28:59.045Z,64.20
2019-03-21T16:31:25.569Z,64.10
2019-03-21T16:33:51.895Z,64.40
2019-03-21T16:36:18.327Z,64.20
2019-03-21T16:38:44.974Z,64.60
2019-03-21T16:41:11.184Z,64.90
2019-03-21T16:43:37.492Z,64.20
2019-03-21T16:46:03.859Z,64.20
2019-03-21T16:48:30.226Z,64.10
2019-03-21T16:50:56.534Z,64.50
2019-03-21T16:53:22.819Z,64.80
2019-03-21T16:55:49.305Z,65.20
2019-03-21T16:58:15.929Z,65.30
2019-03-21T17:00:42.236Z,65.00
2019-03-21T17:03:08.531Z,65.40
2019-03-21T17:05:34.965Z,65.70
2019-03-21T17:08:10.452Z,65.20
2019-03-21T17:10:30.580Z,65.00
2019-03-21T17:12:57.491Z,65.20
2019-03-21T17:15:23.820Z,65.80
2019-03-21T17:17:50.253Z,65.90
2019-03-21T17:20:16.575Z,66.00
2019-03-21T17:22:42.914Z,66.10
2019-03-21T17:25:09.964Z,65.70
2019-03-21T17:27:36.287Z,65.90
2019-03-21T17:30:09.079Z,65.80
2019-03-21T17:32:35.496Z,66.10
2019-03-21T17:35:03.705Z,65.70
2019-03-21T17:37:29.995Z,65.70
2019-03-21T17:39:56.334Z,65.80
2019-03-21T17:42:22.662Z,66.30
2019-03-21T17:44:48.990Z,66.60
2019-03-21T17:47:15.322Z,66.90
2019-03-21T17:49:41.625Z,67.00
2019-03-21T17:52:07.982Z,67.30
2019-03-21T17:54:41.438Z,67.60
2019-03-21T17:57:02.722Z,67.70
2019-03-21T17:59:29.123Z,67.90
2019-03-21T18:01:55.333Z,68.00
2019-03-21T18:04:22.091Z,68.30
2019-03-21T18:06:48.344Z,68.30
2019-03-21T18:09:14.853Z,68.30
2019-03-21T18:11:41.134Z,68.60
2019-03-21T18:14:09.363Z,68.90
2019-03-21T18:16:36.673Z,68.70
2019-03-21T18:19:02.955Z,68.70
2019-03-21T18:21:29.272Z,69.60
2019-03-21T18:23:55.599Z,68.80
2019-03-21T18:26:41.689Z,68.90
2019-03-21T18:29:08.347Z,68.10
2019-03-21T18:31:34.660Z,70.00
2019-03-21T18:34:01.095Z,69.40
2019-03-21T18:36:27.401Z,69.40
2019-03-21T18:38:58.969Z,69.50
2019-03-21T18:41:22.238Z,69.50
2019-03-21T18:43:48.565Z,69.80
2019-03-21T18:46:14.895Z,70.00
2019-03-21T18:48:41.157Z,70.00
2019-03-21T18:51:07.650Z,70.20
2019-03-21T18:53:34.151Z,70.10
2019-03-21T18:56:00.526Z,70.40
2019-03-21T18:58:27.740Z,70.20
2019-03-21T19:00:54.106Z,70.50
2019-03-21T19:03:20.403Z,70.60
2019-03-21T19:05:46.979Z,70.70
2019-03-21T19:08:13.305Z,70.70
2019-03-21T19:10:39.635Z,70.80
2019-03-21T19:13:05.962Z,71.00
2019-03-21T19:15:32.294Z,70.90
2019-03-21T19:17:58.630Z,70.90
2019-03-21T19:20:25.259Z,71.10
2019-03-21T19:22:51.590Z,71.20
2019-03-21T19:25:19.514Z,71.10
2019-03-21T19:27:46.504Z,71.10
2019-03-21T19:30:15.607Z,71.10
2019-03-21T19:32:44.035Z,71.30
2019-03-21T19:35:12.662Z,71.10
2019-03-21T19:37:38.993Z,71.20
2019-03-21T19:40:07.914Z,71.40
2019-03-21T19:42:34.726Z,71.50
2019-03-21T19:45:01.120Z,71.50
2019-03-21T19:47:30.286Z,71.60
2019-03-21T19:49:55.538Z,71.50
2019-03-21T19:52:21.965Z,71.60
2019-03-21T19:54:48.322Z,71.70
2019-03-21T19:57:14.654Z,71.80
2019-03-21T19:59:41.210Z,72.00
2019-03-21T20:02:07.613Z,72.20
2019-03-21T20:04:33.951Z,72.30
2019-03-21T20:07:00.282Z,72.50
2019-03-21T20:09:26.735Z,72.50
2019-03-21T20:11:53.061Z,72.60
2019-03-21T20:14:19.295Z,72.50
2019-03-21T20:16:47.542Z,72.60
2019-03-21T20:19:13.778Z,72.80
2019-03-21T20:21:47.812Z,72.80
2019-03-21T20:24:08.282Z,72.90
2019-03-21T20:26:36.317Z,73.10
2019-03-21T20:29:03.115Z,73.40
2019-03-21T20:31:29.546Z,73.50
2019-03-21T20:33:55.956Z,73.70
2019-03-21T20:36:22.266Z,73.80
2019-03-21T20:38:48.570Z,74.20
2019-03-21T20:41:14.951Z,74.00
2019-03-21T20:43:41.387Z,74.00
2019-03-21T20:46:07.812Z,74.10
2019-03-21T20:48:34.040Z,74.20
2019-03-21T20:51:00.343Z,74.30
2019-03-21T20:53:26.701Z,74.30
2019-03-21T20:55:53.926Z,74.30
2019-03-21T20:58:20.390Z,74.50
2019-03-21T21:00:46.717Z,74.60
2019-03-21T21:03:13.252Z,74.60
2019-03-21T21:05:39.685Z,74.50
2019-03-21T21:08:06.122Z,74.60
2019-03-21T21:10:32.757Z,74.70
2019-03-21T21:12:59.191Z,74.70
2019-03-21T21:15:25.726Z,74.60
2019-03-21T21:17:52.154Z,74.60
2019-03-21T21:20:18.587Z,74.60
2019-03-21T21:22:45.227Z,74.60
2019-03-21T21:25:12.169Z,74.70
2019-03-21T21:27:48.815Z,75.70
2019-03-21T21:30:13.129Z,74.90
2019-03-21T21:32:39.666Z,74.80
2019-03-21T21:35:07.634Z,74.70
2019-03-21T21:37:34.471Z,74.80
2019-03-21T21:40:00.963Z,74.70
2019-03-21T21:42:28.942Z,74.90
2019-03-21T21:44:55.310Z,75.00
2019-03-21T21:47:21.738Z,75.90
2019-03-21T21:49:48.171Z,75.30
2019-03-21T21:52:14.501Z,75.60
2019-03-21T21:54:41.048Z,75.80
2019-03-21T21:57:07.331Z,76.00
2019-03-21T21:59:33.680Z,75.90
2019-03-21T22:02:00.029Z,76.00
2019-03-21T22:04:26.290Z,75.90
2019-03-21T22:06:52.691Z,75.90
2019-03-21T22:09:19.000Z,76.10
2019-03-21T22:11:45.284Z,76.10
2019-03-21T22:14:11.895Z,76.10
2019-03-21T22:16:38.214Z,76.20
2019-03-21T22:19:05.057Z,76.20
2019-03-21T22:21:31.387Z,76.10
2019-03-21T22:23:57.717Z,76.20
2019-03-21T22:26:29.558Z,76.20
2019-03-21T22:28:52.094Z,76.00
2019-03-21T22:31:18.673Z,76.10
2019-03-21T22:33:45.087Z,76.00
2019-03-21T22:36:11.422Z,75.90
2019-03-21T22:38:37.642Z,75.80
2019-03-21T22:41:04.148Z,75.70
2019-03-21T22:43:30.442Z,75.70
2019-03-21T22:45:56.747Z,75.70
2019-03-21T22:48:23.072Z,75.90
2019-03-21T22:50:49.403Z,76.10
2019-03-21T22:53:16.044Z,76.40
2019-03-21T22:55:42.233Z,76.50
2019-03-21T22:58:08.597Z,76.40
2019-03-21T23:00:42.503Z,77.30
2019-03-21T23:03:10.089Z,76.60
2019-03-21T23:05:36.494Z,76.80
2019-03-21T23:08:03.029Z,76.80
2019-03-21T23:10:29.360Z,76.80
2019-03-21T23:12:55.895Z,77.00
2019-03-21T23:15:22.161Z,77.00
2019-03-21T23:17:48.460Z,77.00
2019-03-21T23:20:16.024Z,77.10
2019-03-21T23:22:42.550Z,77.20
2019-03-21T23:25:09.904Z,77.20
2019-03-21T23:27:36.237Z,78.10
2019-03-21T23:30:05.641Z,77.20
2019-03-21T23:32:31.967Z,77.20
2019-03-21T23:34:58.295Z,77.30
2019-03-21T23:37:24.627Z,77.30
2019-03-21T23:39:51.819Z,77.50
2019-03-21T23:42:18.208Z,77.60
2019-03-21T23:44:44.539Z,77.80
2019-03-21T23:47:10.936Z,77.90
2019-03-21T23:49:37.406Z,77.90
2019-03-21T23:52:03.839Z,77.90
2019-03-21T23:54:30.178Z,77.80
2019-03-21T23:57:04.493Z,77.90
2019-03-21T23:59:24.579Z,77.80
